sensor_id;sensor_type;location;lat;lon;timestamp;P1;durP1;ratioP1;P2;durP2;ratioP2
64297;SDS011;50639;53.270;7.956;2023-07-16T00:02:07;7.53;;;3.40;;
64297;SDS011;50639;53.270;7.956;2023-07-16T00:04:32;7.40;;;3.58;;
64297;SDS011;50639;53.270;7.956;2023-07-16T00:07:00;9.40;;;3.40;;
64297;SDS011;50639;53.270;7.956;2023-07-16T00:09:29;6.55;;;2.72;;
64297;SDS011;50639;53.270;7.956;2023-07-16T00:11:54;8.00;;;3.30;;
64297;SDS011;50639;53.270;7.956;2023-07-16T00:14:20;6.65;;;3.22;;
64297;SDS011;50639;53.270;7.956;2023-07-16T00:16:45;8.43;;;3.28;;
64297;SDS011;50639;53.270;7.956;2023-07-16T00:19:11;8.82;;;4.00;;
64297;SDS011;50639;53.270;7.956;2023-07-16T00:21:37;7.07;;;2.97;;
64297;SDS011;50639;53.270;7.956;2023-07-16T00:24:03;8.85;;;3.33;;
64297;SDS011;50639;53.270;7.956;2023-07-16T00:26:29;11.23;;;3.35;;
64297;SDS011;50639;53.270;7.956;2023-07-16T00:28:55;7.78;;;3.17;;
64297;SDS011;50639;53.270;7.956;2023-07-16T00:31:20;9.35;;;3.30;;
64297;SDS011;50639;53.270;7.956;2023-07-16T00:33:46;8.50;;;3.30;;
64297;SDS011;50639;53.270;7.956;2023-07-16T00:36:12;7.82;;;3.22;;
64297;SDS011;50639;53.270;7.956;2023-07-16T00:38:37;8.80;;;3.25;;
64297;SDS011;50639;53.270;7.956;2023-07-16T00:41:05;8.50;;;3.03;;
64297;SDS011;50639;53.270;7.956;2023-07-16T00:43:31;11.57;;;3.85;;
64297;SDS011;50639;53.270;7.956;2023-07-16T00:45:56;12.13;;;3.30;;
64297;SDS011;50639;53.270;7.956;2023-07-16T00:48:23;6.23;;;2.83;;
64297;SDS011;50639;53.270;7.956;2023-07-16T00:50:49;7.25;;;3.17;;
64297;SDS011;50639;53.270;7.956;2023-07-16T00:53:17;8.02;;;3.13;;
64297;SDS011;50639;53.270;7.956;2023-07-16T00:55:43;6.20;;;2.92;;
64297;SDS011;50639;53.270;7.956;2023-07-16T00:58:08;8.07;;;3.28;;
64297;SDS011;50639;53.270;7.956;2023-07-16T01:00:34;6.88;;;3.33;;
64297;SDS011;50639;53.270;7.956;2023-07-16T01:03:01;8.57;;;2.92;;
64297;SDS011;50639;53.270;7.956;2023-07-16T01:05:31;10.80;;;3.10;;
64297;SDS011;50639;53.270;7.956;2023-07-16T01:08:02;8.70;;;3.10;;
64297;SDS011;50639;53.270;7.956;2023-07-16T01:10:31;5.70;;;2.70;;
64297;SDS011;50639;53.270;7.956;2023-07-16T01:12:58;10.63;;;3.42;;
64297;SDS011;50639;53.270;7.956;2023-07-16T01:15:24;7.15;;;2.90;;
64297;SDS011;50639;53.270;7.956;2023-07-16T01:17:49;11.00;;;3.50;;
64297;SDS011;50639;53.270;7.956;2023-07-16T01:20:15;7.05;;;3.03;;
64297;SDS011;50639;53.270;7.956;2023-07-16T01:22:51;7.97;;;3.05;;
64297;SDS011;50639;53.270;7.956;2023-07-16T01:25:36;8.77;;;3.20;;
64297;SDS011;50639;53.270;7.956;2023-07-16T01:31:04;11.18;;;3.63;;
64297;SDS011;50639;53.270;7.956;2023-07-16T01:33:29;10.55;;;3.50;;
64297;SDS011;50639;53.270;7.956;2023-07-16T01:35:57;8.88;;;3.80;;
64297;SDS011;50639;53.270;7.956;2023-07-16T01:38:24;11.45;;;3.13;;
64297;SDS011;50639;53.270;7.956;2023-07-16T01:40:50;7.93;;;3.03;;
64297;SDS011;50639;53.270;7.956;2023-07-16T01:43:15;9.65;;;3.38;;
64297;SDS011;50639;53.270;7.956;2023-07-16T01:45:41;12.40;;;3.40;;
64297;SDS011;50639;53.270;7.956;2023-07-16T01:48:16;7.25;;;3.30;;
64297;SDS011;50639;53.270;7.956;2023-07-16T01:50:47;9.27;;;3.92;;
64297;SDS011;50639;53.270;7.956;2023-07-16T01:53:13;7.95;;;3.22;;
64297;SDS011;50639;53.270;7.956;2023-07-16T01:55:38;9.07;;;3.50;;
64297;SDS011;50639;53.270;7.956;2023-07-16T01:58:03;8.63;;;3.40;;
64297;SDS011;50639;53.270;7.956;2023-07-16T02:00:31;9.45;;;2.97;;
64297;SDS011;50639;53.270;7.956;2023-07-16T02:02:56;9.63;;;4.07;;
64297;SDS011;50639;53.270;7.956;2023-07-16T02:05:22;9.05;;;3.08;;
64297;SDS011;50639;53.270;7.956;2023-07-16T02:07:47;9.25;;;3.70;;
64297;SDS011;50639;53.270;7.956;2023-07-16T02:10:13;14.23;;;3.72;;
64297;SDS011;50639;53.270;7.956;2023-07-16T02:12:38;9.90;;;3.80;;
64297;SDS011;50639;53.270;7.956;2023-07-16T02:15:04;13.77;;;4.10;;
64297;SDS011;50639;53.270;7.956;2023-07-16T02:17:34;13.68;;;4.15;;
64297;SDS011;50639;53.270;7.956;2023-07-16T02:20:00;12.77;;;3.78;;
64297;SDS011;50639;53.270;7.956;2023-07-16T02:22:25;11.00;;;3.83;;
64297;SDS011;50639;53.270;7.956;2023-07-16T02:24:51;12.85;;;4.38;;
64297;SDS011;50639;53.270;7.956;2023-07-16T02:27:16;11.05;;;4.10;;
64297;SDS011;50639;53.270;7.956;2023-07-16T02:29:42;11.13;;;3.60;;
64297;SDS011;50639;53.270;7.956;2023-07-16T02:32:08;11.70;;;4.10;;
64297;SDS011;50639;53.270;7.956;2023-07-16T02:34:36;10.82;;;3.58;;
64297;SDS011;50639;53.270;7.956;2023-07-16T02:37:01;11.75;;;4.32;;
64297;SDS011;50639;53.270;7.956;2023-07-16T02:39:27;12.10;;;4.15;;
64297;SDS011;50639;53.270;7.956;2023-07-16T02:41:52;12.25;;;3.90;;
64297;SDS011;50639;53.270;7.956;2023-07-16T02:44:18;10.70;;;4.65;;
64297;SDS011;50639;53.270;7.956;2023-07-16T02:46:44;9.75;;;3.80;;
64297;SDS011;50639;53.270;7.956;2023-07-16T02:49:10;8.50;;;3.65;;
64297;SDS011;50639;53.270;7.956;2023-07-16T02:51:35;7.47;;;3.67;;
64297;SDS011;50639;53.270;7.956;2023-07-16T02:54:01;15.43;;;4.68;;
64297;SDS011;50639;53.270;7.956;2023-07-16T02:56:27;13.00;;;3.92;;
64297;SDS011;50639;53.270;7.956;2023-07-16T02:58:52;11.30;;;4.15;;
64297;SDS011;50639;53.270;7.956;2023-07-16T03:01:18;13.25;;;4.07;;
64297;SDS011;50639;53.270;7.956;2023-07-16T03:03:43;13.43;;;4.10;;
64297;SDS011;50639;53.270;7.956;2023-07-16T03:06:09;13.40;;;4.00;;
64297;SDS011;50639;53.270;7.956;2023-07-16T03:08:34;12.07;;;4.43;;
64297;SDS011;50639;53.270;7.956;2023-07-16T03:11:00;16.92;;;4.63;;
64297;SDS011;50639;53.270;7.956;2023-07-16T03:13:25;10.35;;;3.78;;
64297;SDS011;50639;53.270;7.956;2023-07-16T03:15:51;15.60;;;4.78;;
64297;SDS011;50639;53.270;7.956;2023-07-16T03:18:18;9.23;;;4.05;;
64297;SDS011;50639;53.270;7.956;2023-07-16T03:20:44;13.05;;;4.13;;
64297;SDS011;50639;53.270;7.956;2023-07-16T03:23:10;14.25;;;4.53;;
64297;SDS011;50639;53.270;7.956;2023-07-16T03:25:36;9.50;;;3.60;;
64297;SDS011;50639;53.270;7.956;2023-07-16T03:28:02;12.27;;;3.72;;
64297;SDS011;50639;53.270;7.956;2023-07-16T03:30:32;8.60;;;3.80;;
64297;SDS011;50639;53.270;7.956;2023-07-16T03:32:58;12.57;;;3.83;;
64297;SDS011;50639;53.270;7.956;2023-07-16T03:35:25;12.13;;;4.30;;
64297;SDS011;50639;53.270;7.956;2023-07-16T03:37:51;9.50;;;3.60;;
64297;SDS011;50639;53.270;7.956;2023-07-16T03:40:18;12.32;;;3.90;;
64297;SDS011;50639;53.270;7.956;2023-07-16T03:42:49;11.85;;;4.10;;
64297;SDS011;50639;53.270;7.956;2023-07-16T03:45:14;15.43;;;4.00;;
64297;SDS011;50639;53.270;7.956;2023-07-16T03:47:40;13.32;;;3.78;;
64297;SDS011;50639;53.270;7.956;2023-07-16T03:50:06;13.80;;;4.25;;
64297;SDS011;50639;53.270;7.956;2023-07-16T03:52:32;11.05;;;3.83;;
64297;SDS011;50639;53.270;7.956;2023-07-16T03:54:57;13.57;;;4.13;;
64297;SDS011;50639;53.270;7.956;2023-07-16T03:57:24;12.93;;;4.30;;
64297;SDS011;50639;53.270;7.956;2023-07-16T03:59:51;10.63;;;4.35;;
64297;SDS011;50639;53.270;7.956;2023-07-16T04:02:17;9.10;;;4.18;;
64297;SDS011;50639;53.270;7.956;2023-07-16T04:04:42;24.15;;;4.40;;
64297;SDS011;50639;53.270;7.956;2023-07-16T04:07:08;10.57;;;3.88;;
64297;SDS011;50639;53.270;7.956;2023-07-16T04:09:36;16.90;;;3.90;;
64297;SDS011;50639;53.270;7.956;2023-07-16T04:12:03;10.63;;;4.13;;
64297;SDS011;50639;53.270;7.956;2023-07-16T04:14:29;12.43;;;4.53;;
64297;SDS011;50639;53.270;7.956;2023-07-16T04:16:54;9.10;;;3.80;;
64297;SDS011;50639;53.270;7.956;2023-07-16T04:19:20;10.18;;;4.13;;
64297;SDS011;50639;53.270;7.956;2023-07-16T04:21:45;11.43;;;3.90;;
64297;SDS011;50639;53.270;7.956;2023-07-16T04:24:10;19.63;;;4.80;;
64297;SDS011;50639;53.270;7.956;2023-07-16T04:26:36;13.90;;;4.32;;
64297;SDS011;50639;53.270;7.956;2023-07-16T04:29:01;14.90;;;4.50;;
64297;SDS011;50639;53.270;7.956;2023-07-16T04:31:27;11.18;;;4.50;;
64297;SDS011;50639;53.270;7.956;2023-07-16T04:33:52;11.68;;;4.25;;
64297;SDS011;50639;53.270;7.956;2023-07-16T04:36:18;9.13;;;3.90;;
64297;SDS011;50639;53.270;7.956;2023-07-16T04:38:44;13.50;;;4.45;;
64297;SDS011;50639;53.270;7.956;2023-07-16T04:41:09;13.75;;;4.05;;
64297;SDS011;50639;53.270;7.956;2023-07-16T04:43:37;11.10;;;3.85;;
64297;SDS011;50639;53.270;7.956;2023-07-16T04:46:03;9.50;;;4.15;;
64297;SDS011;50639;53.270;7.956;2023-07-16T04:48:29;10.38;;;4.40;;
64297;SDS011;50639;53.270;7.956;2023-07-16T04:50:55;10.80;;;3.90;;
64297;SDS011;50639;53.270;7.956;2023-07-16T04:53:20;15.15;;;4.57;;
64297;SDS011;50639;53.270;7.956;2023-07-16T04:55:47;11.50;;;4.68;;
64297;SDS011;50639;53.270;7.956;2023-07-16T04:58:12;11.23;;;4.38;;
64297;SDS011;50639;53.270;7.956;2023-07-16T05:00:38;15.80;;;4.63;;
64297;SDS011;50639;53.270;7.956;2023-07-16T05:03:04;11.35;;;4.63;;
64297;SDS011;50639;53.270;7.956;2023-07-16T05:05:29;13.20;;;4.47;;
64297;SDS011;50639;53.270;7.956;2023-07-16T05:07:55;12.60;;;4.55;;
64297;SDS011;50639;53.270;7.956;2023-07-16T05:10:20;12.13;;;4.68;;
64297;SDS011;50639;53.270;7.956;2023-07-16T05:12:46;9.48;;;4.72;;
64297;SDS011;50639;53.270;7.956;2023-07-16T05:15:11;10.45;;;4.93;;
64297;SDS011;50639;53.270;7.956;2023-07-16T05:17:37;12.48;;;4.35;;
64297;SDS011;50639;53.270;7.956;2023-07-16T05:20:04;13.48;;;5.22;;
64297;SDS011;50639;53.270;7.956;2023-07-16T05:22:30;10.93;;;4.40;;
64297;SDS011;50639;53.270;7.956;2023-07-16T05:24:55;17.00;;;5.45;;
64297;SDS011;50639;53.270;7.956;2023-07-16T05:27:21;20.30;;;5.72;;
64297;SDS011;50639;53.270;7.956;2023-07-16T05:29:47;13.77;;;5.22;;
64297;SDS011;50639;53.270;7.956;2023-07-16T05:32:13;9.83;;;4.87;;
64297;SDS011;50639;53.270;7.956;2023-07-16T05:34:38;15.82;;;5.03;;
64297;SDS011;50639;53.270;7.956;2023-07-16T05:37:04;13.57;;;5.18;;
64297;SDS011;50639;53.270;7.956;2023-07-16T05:39:30;15.88;;;5.32;;
64297;SDS011;50639;53.270;7.956;2023-07-16T05:41:55;15.48;;;4.40;;
64297;SDS011;50639;53.270;7.956;2023-07-16T05:44:21;16.77;;;4.80;;
64297;SDS011;50639;53.270;7.956;2023-07-16T05:46:46;13.13;;;5.05;;
64297;SDS011;50639;53.270;7.956;2023-07-16T05:49:12;14.02;;;5.38;;
64297;SDS011;50639;53.270;7.956;2023-07-16T05:51:38;15.68;;;5.35;;
64297;SDS011;50639;53.270;7.956;2023-07-16T05:54:03;16.15;;;4.40;;
64297;SDS011;50639;53.270;7.956;2023-07-16T05:56:29;15.18;;;5.28;;
64297;SDS011;50639;53.270;7.956;2023-07-16T05:58:55;16.17;;;4.65;;
64297;SDS011;50639;53.270;7.956;2023-07-16T06:01:21;22.35;;;5.30;;
64297;SDS011;50639;53.270;7.956;2023-07-16T06:03:47;17.05;;;5.22;;
64297;SDS011;50639;53.270;7.956;2023-07-16T06:06:13;16.15;;;5.00;;
64297;SDS011;50639;53.270;7.956;2023-07-16T06:08:38;15.90;;;4.63;;
64297;SDS011;50639;53.270;7.956;2023-07-16T06:11:04;11.43;;;4.50;;
64297;SDS011;50639;53.270;7.956;2023-07-16T06:13:29;14.05;;;4.50;;
64297;SDS011;50639;53.270;7.956;2023-07-16T06:15:55;12.02;;;4.32;;
64297;SDS011;50639;53.270;7.956;2023-07-16T06:18:20;16.52;;;4.72;;
64297;SDS011;50639;53.270;7.956;2023-07-16T06:20:46;14.63;;;4.93;;
64297;SDS011;50639;53.270;7.956;2023-07-16T06:23:12;15.45;;;4.53;;
64297;SDS011;50639;53.270;7.956;2023-07-16T06:25:38;10.80;;;4.60;;
64297;SDS011;50639;53.270;7.956;2023-07-16T06:28:05;16.42;;;4.03;;
64297;SDS011;50639;53.270;7.956;2023-07-16T06:30:31;10.77;;;4.35;;
64297;SDS011;50639;53.270;7.956;2023-07-16T06:32:58;13.33;;;4.37;;
64297;SDS011;50639;53.270;7.956;2023-07-16T06:35:24;13.13;;;4.38;;
64297;SDS011;50639;53.270;7.956;2023-07-16T06:37:49;12.02;;;3.95;;
64297;SDS011;50639;53.270;7.956;2023-07-16T06:40:15;11.93;;;4.28;;
64297;SDS011;50639;53.270;7.956;2023-07-16T06:42:40;11.63;;;3.97;;
64297;SDS011;50639;53.270;7.956;2023-07-16T06:45:06;10.25;;;4.10;;
64297;SDS011;50639;53.270;7.956;2023-07-16T06:47:32;16.95;;;4.80;;
64297;SDS011;50639;53.270;7.956;2023-07-16T06:49:57;10.57;;;4.00;;
64297;SDS011;50639;53.270;7.956;2023-07-16T06:52:23;13.25;;;4.28;;
64297;SDS011;50639;53.270;7.956;2023-07-16T06:54:52;12.65;;;4.60;;
64297;SDS011;50639;53.270;7.956;2023-07-16T06:57:22;15.95;;;4.15;;
64297;SDS011;50639;53.270;7.956;2023-07-16T06:59:50;8.05;;;3.88;;
64297;SDS011;50639;53.270;7.956;2023-07-16T07:02:16;12.50;;;4.50;;
64297;SDS011;50639;53.270;7.956;2023-07-16T07:04:42;11.15;;;4.10;;
64297;SDS011;50639;53.270;7.956;2023-07-16T07:07:11;11.10;;;4.38;;
64297;SDS011;50639;53.270;7.956;2023-07-16T07:09:36;12.98;;;4.13;;
64297;SDS011;50639;53.270;7.956;2023-07-16T07:12:02;10.05;;;4.20;;
64297;SDS011;50639;53.270;7.956;2023-07-16T07:14:28;13.50;;;4.25;;
64297;SDS011;50639;53.270;7.956;2023-07-16T07:16:53;8.70;;;4.07;;
64297;SDS011;50639;53.270;7.956;2023-07-16T07:19:19;11.45;;;4.43;;
64297;SDS011;50639;53.270;7.956;2023-07-16T07:21:45;10.63;;;4.20;;
64297;SDS011;50639;53.270;7.956;2023-07-16T07:24:11;13.07;;;5.10;;
64297;SDS011;50639;53.270;7.956;2023-07-16T07:26:37;12.00;;;4.88;;
64297;SDS011;50639;53.270;7.956;2023-07-16T07:29:02;10.05;;;4.32;;
64297;SDS011;50639;53.270;7.956;2023-07-16T07:31:28;14.00;;;4.70;;
64297;SDS011;50639;53.270;7.956;2023-07-16T07:33:53;13.55;;;4.75;;
64297;SDS011;50639;53.270;7.956;2023-07-16T07:36:19;15.65;;;5.40;;
64297;SDS011;50639;53.270;7.956;2023-07-16T07:38:44;10.18;;;4.40;;
64297;SDS011;50639;53.270;7.956;2023-07-16T07:41:10;11.90;;;4.40;;
64297;SDS011;50639;53.270;7.956;2023-07-16T07:43:36;9.95;;;4.32;;
64297;SDS011;50639;53.270;7.956;2023-07-16T07:46:02;11.43;;;4.00;;
64297;SDS011;50639;53.270;7.956;2023-07-16T07:48:29;9.50;;;3.97;;
64297;SDS011;50639;53.270;7.956;2023-07-16T07:50:54;12.38;;;4.50;;
64297;SDS011;50639;53.270;7.956;2023-07-16T07:53:19;12.23;;;4.63;;
64297;SDS011;50639;53.270;7.956;2023-07-16T07:55:45;10.30;;;4.50;;
64297;SDS011;50639;53.270;7.956;2023-07-16T07:58:11;11.85;;;4.35;;
64297;SDS011;50639;53.270;7.956;2023-07-16T08:00:37;11.32;;;4.30;;
64297;SDS011;50639;53.270;7.956;2023-07-16T08:03:02;10.18;;;4.10;;
64297;SDS011;50639;53.270;7.956;2023-07-16T08:05:28;13.52;;;4.28;;
64297;SDS011;50639;53.270;7.956;2023-07-16T08:07:53;10.15;;;4.28;;
64297;SDS011;50639;53.270;7.956;2023-07-16T08:10:21;12.68;;;4.85;;
64297;SDS011;50639;53.270;7.956;2023-07-16T08:12:47;11.03;;;4.37;;
64297;SDS011;50639;53.270;7.956;2023-07-16T08:15:12;9.05;;;4.07;;
64297;SDS011;50639;53.270;7.956;2023-07-16T08:17:43;10.23;;;3.95;;
64297;SDS011;50639;53.270;7.956;2023-07-16T08:20:10;10.65;;;4.65;;
64297;SDS011;50639;53.270;7.956;2023-07-16T08:22:37;10.35;;;3.83;;
64297;SDS011;50639;53.270;7.956;2023-07-16T08:25:03;11.60;;;4.95;;
64297;SDS011;50639;53.270;7.956;2023-07-16T08:27:29;9.15;;;4.75;;
64297;SDS011;50639;53.270;7.956;2023-07-16T08:29:55;14.05;;;4.90;;
64297;SDS011;50639;53.270;7.956;2023-07-16T08:32:20;12.05;;;4.03;;
64297;SDS011;50639;53.270;7.956;2023-07-16T08:34:46;8.63;;;4.47;;
64297;SDS011;50639;53.270;7.956;2023-07-16T08:37:12;18.63;;;4.90;;
64297;SDS011;50639;53.270;7.956;2023-07-16T08:39:38;11.13;;;4.13;;
64297;SDS011;50639;53.270;7.956;2023-07-16T08:42:04;10.77;;;4.28;;
64297;SDS011;50639;53.270;7.956;2023-07-16T08:44:30;12.25;;;4.45;;
64297;SDS011;50639;53.270;7.956;2023-07-16T08:46:55;11.13;;;4.45;;
64297;SDS011;50639;53.270;7.956;2023-07-16T08:49:22;11.23;;;4.30;;
64297;SDS011;50639;53.270;7.956;2023-07-16T08:51:48;10.35;;;4.03;;
64297;SDS011;50639;53.270;7.956;2023-07-16T08:54:14;9.13;;;4.13;;
64297;SDS011;50639;53.270;7.956;2023-07-16T08:56:43;12.57;;;4.18;;
64297;SDS011;50639;53.270;7.956;2023-07-16T08:59:09;11.20;;;4.32;;
64297;SDS011;50639;53.270;7.956;2023-07-16T09:01:36;10.70;;;4.32;;
64297;SDS011;50639;53.270;7.956;2023-07-16T09:04:03;12.88;;;3.90;;
64297;SDS011;50639;53.270;7.956;2023-07-16T09:06:29;9.85;;;4.20;;
64297;SDS011;50639;53.270;7.956;2023-07-16T09:08:55;10.50;;;4.03;;
64297;SDS011;50639;53.270;7.956;2023-07-16T09:11:20;10.18;;;4.22;;
64297;SDS011;50639;53.270;7.956;2023-07-16T09:13:47;12.68;;;4.13;;
64297;SDS011;50639;53.270;7.956;2023-07-16T09:16:19;9.02;;;4.00;;
64297;SDS011;50639;53.270;7.956;2023-07-16T09:18:46;8.50;;;4.10;;
64297;SDS011;50639;53.270;7.956;2023-07-16T09:21:11;9.73;;;4.00;;
64297;SDS011;50639;53.270;7.956;2023-07-16T09:23:37;9.60;;;3.88;;
64297;SDS011;50639;53.270;7.956;2023-07-16T09:26:03;9.85;;;4.05;;
64297;SDS011;50639;53.270;7.956;2023-07-16T09:28:32;11.98;;;4.38;;
64297;SDS011;50639;53.270;7.956;2023-07-16T09:31:03;10.52;;;4.50;;
64297;SDS011;50639;53.270;7.956;2023-07-16T09:33:31;10.18;;;4.28;;
64297;SDS011;50639;53.270;7.956;2023-07-16T09:35:56;8.85;;;4.40;;
64297;SDS011;50639;53.270;7.956;2023-07-16T09:38:22;14.77;;;4.88;;
64297;SDS011;50639;53.270;7.956;2023-07-16T09:40:49;9.98;;;4.10;;
64297;SDS011;50639;53.270;7.956;2023-07-16T09:45:42;9.27;;;4.50;;
64297;SDS011;50639;53.270;7.956;2023-07-16T09:48:08;8.10;;;3.93;;
64297;SDS011;50639;53.270;7.956;2023-07-16T09:50:34;14.00;;;4.00;;
64297;SDS011;50639;53.270;7.956;2023-07-16T09:55:30;9.85;;;4.30;;
64297;SDS011;50639;53.270;7.956;2023-07-16T09:57:58;9.60;;;4.63;;
64297;SDS011;50639;53.270;7.956;2023-07-16T10:00:26;9.40;;;4.53;;
64297;SDS011;50639;53.270;7.956;2023-07-16T10:02:53;11.25;;;4.10;;
64297;SDS011;50639;53.270;7.956;2023-07-16T10:05:26;14.13;;;4.47;;
64297;SDS011;50639;53.270;7.956;2023-07-16T10:07:54;10.35;;;4.20;;
64297;SDS011;50639;53.270;7.956;2023-07-16T10:10:47;12.50;;;4.30;;
64297;SDS011;50639;53.270;7.956;2023-07-16T10:13:16;10.02;;;4.20;;
64297;SDS011;50639;53.270;7.956;2023-07-16T10:15:55;10.65;;;4.07;;
64297;SDS011;50639;53.270;7.956;2023-07-16T10:18:27;10.65;;;4.22;;
64297;SDS011;50639;53.270;7.956;2023-07-16T10:23:42;13.05;;;4.60;;
64297;SDS011;50639;53.270;7.956;2023-07-16T10:26:11;10.30;;;4.75;;
64297;SDS011;50639;53.270;7.956;2023-07-16T10:28:38;10.60;;;4.30;;
64297;SDS011;50639;53.270;7.956;2023-07-16T10:31:03;11.30;;;4.30;;
64297;SDS011;50639;53.270;7.956;2023-07-16T10:33:29;9.77;;;4.60;;
64297;SDS011;50639;53.270;7.956;2023-07-16T10:35:57;15.32;;;5.13;;
64297;SDS011;50639;53.270;7.956;2023-07-16T10:38:26;15.32;;;4.70;;
64297;SDS011;50639;53.270;7.956;2023-07-16T10:40:53;7.05;;;4.25;;
64297;SDS011;50639;53.270;7.956;2023-07-16T10:43:22;9.93;;;4.40;;
64297;SDS011;50639;53.270;7.956;2023-07-16T10:45:50;11.52;;;5.45;;
64297;SDS011;50639;53.270;7.956;2023-07-16T10:48:17;9.85;;;4.43;;
64297;SDS011;50639;53.270;7.956;2023-07-16T10:50:44;9.75;;;4.60;;
64297;SDS011;50639;53.270;7.956;2023-07-16T10:53:26;10.45;;;4.68;;
64297;SDS011;50639;53.270;7.956;2023-07-16T10:56:04;12.25;;;4.72;;
64297;SDS011;50639;53.270;7.956;2023-07-16T10:58:37;9.02;;;4.22;;
64297;SDS011;50639;53.270;7.956;2023-07-16T11:01:09;10.65;;;4.47;;
64297;SDS011;50639;53.270;7.956;2023-07-16T11:03:37;9.52;;;4.47;;
64297;SDS011;50639;53.270;7.956;2023-07-16T11:06:09;11.48;;;4.65;;
64297;SDS011;50639;53.270;7.956;2023-07-16T11:08:38;8.65;;;3.65;;
64297;SDS011;50639;53.270;7.956;2023-07-16T11:11:11;7.18;;;3.97;;
64297;SDS011;50639;53.270;7.956;2023-07-16T11:13:45;9.95;;;4.47;;
64297;SDS011;50639;53.270;7.956;2023-07-16T11:16:17;11.57;;;4.13;;
64297;SDS011;50639;53.270;7.956;2023-07-16T11:18:45;8.98;;;3.92;;
64297;SDS011;50639;53.270;7.956;2023-07-16T11:21:20;10.05;;;4.15;;
64297;SDS011;50639;53.270;7.956;2023-07-16T11:23:50;11.00;;;4.20;;
64297;SDS011;50639;53.270;7.956;2023-07-16T11:26:21;11.98;;;4.78;;
64297;SDS011;50639;53.270;7.956;2023-07-16T11:28:52;11.63;;;4.75;;
64297;SDS011;50639;53.270;7.956;2023-07-16T11:31:21;10.38;;;4.40;;
64297;SDS011;50639;53.270;7.956;2023-07-16T11:33:53;14.77;;;5.13;;
64297;SDS011;50639;53.270;7.956;2023-07-16T11:36:28;9.38;;;4.07;;
64297;SDS011;50639;53.270;7.956;2023-07-16T11:38:54;11.02;;;4.40;;
64297;SDS011;50639;53.270;7.956;2023-07-16T11:41:20;8.15;;;4.20;;
64297;SDS011;50639;53.270;7.956;2023-07-16T11:43:46;11.85;;;4.00;;
64297;SDS011;50639;53.270;7.956;2023-07-16T11:46:15;9.23;;;3.88;;
64297;SDS011;50639;53.270;7.956;2023-07-16T11:48:41;9.63;;;4.43;;
64297;SDS011;50639;53.270;7.956;2023-07-16T11:51:08;10.50;;;4.22;;
64297;SDS011;50639;53.270;7.956;2023-07-16T11:53:33;11.30;;;4.22;;
64297;SDS011;50639;53.270;7.956;2023-07-16T11:55:59;8.98;;;4.15;;
64297;SDS011;50639;53.270;7.956;2023-07-16T11:58:24;12.13;;;4.47;;
64297;SDS011;50639;53.270;7.956;2023-07-16T12:00:50;8.60;;;4.00;;
64297;SDS011;50639;53.270;7.956;2023-07-16T12:03:16;10.27;;;4.22;;
64297;SDS011;50639;53.270;7.956;2023-07-16T12:05:42;13.70;;;4.95;;
64297;SDS011;50639;53.270;7.956;2023-07-16T12:08:07;9.63;;;4.60;;
64297;SDS011;50639;53.270;7.956;2023-07-16T12:10:39;8.60;;;4.20;;
64297;SDS011;50639;53.270;7.956;2023-07-16T12:13:05;9.15;;;4.45;;
64297;SDS011;50639;53.270;7.956;2023-07-16T12:15:31;14.27;;;4.40;;
64297;SDS011;50639;53.270;7.956;2023-07-16T12:17:57;10.80;;;4.95;;
64297;SDS011;50639;53.270;7.956;2023-07-16T12:20:22;8.70;;;4.20;;
64297;SDS011;50639;53.270;7.956;2023-07-16T12:22:48;8.88;;;4.00;;
64297;SDS011;50639;53.270;7.956;2023-07-16T12:25:13;12.63;;;4.22;;
64297;SDS011;50639;53.270;7.956;2023-07-16T12:27:41;9.75;;;4.40;;
64297;SDS011;50639;53.270;7.956;2023-07-16T12:30:06;11.00;;;4.45;;
64297;SDS011;50639;53.270;7.956;2023-07-16T12:32:33;11.73;;;5.37;;
64297;SDS011;50639;53.270;7.956;2023-07-16T12:34:59;8.55;;;4.13;;
64297;SDS011;50639;53.270;7.956;2023-07-16T12:37:25;15.02;;;4.43;;
64297;SDS011;50639;53.270;7.956;2023-07-16T12:39:51;9.70;;;4.10;;
64297;SDS011;50639;53.270;7.956;2023-07-16T12:42:16;11.07;;;4.00;;
64297;SDS011;50639;53.270;7.956;2023-07-16T12:44:42;9.48;;;4.13;;
64297;SDS011;50639;53.270;7.956;2023-07-16T12:47:07;10.30;;;4.53;;
64297;SDS011;50639;53.270;7.956;2023-07-16T12:49:36;11.63;;;4.75;;
64297;SDS011;50639;53.270;7.956;2023-07-16T12:52:01;12.20;;;4.70;;
64297;SDS011;50639;53.270;7.956;2023-07-16T12:54:27;8.48;;;4.30;;
64297;SDS011;50639;53.270;7.956;2023-07-16T12:56:52;10.35;;;4.63;;
64297;SDS011;50639;53.270;7.956;2023-07-16T12:59:18;8.60;;;4.53;;
64297;SDS011;50639;53.270;7.956;2023-07-16T13:01:43;12.57;;;4.70;;
64297;SDS011;50639;53.270;7.956;2023-07-16T13:04:09;10.15;;;4.10;;
64297;SDS011;50639;53.270;7.956;2023-07-16T13:06:34;10.38;;;4.47;;
64297;SDS011;50639;53.270;7.956;2023-07-16T13:09:00;11.40;;;4.47;;
64297;SDS011;50639;53.270;7.956;2023-07-16T13:11:25;14.27;;;4.82;;
64297;SDS011;50639;53.270;7.956;2023-07-16T13:13:51;10.80;;;4.55;;
64297;SDS011;50639;53.270;7.956;2023-07-16T13:16:17;9.30;;;4.63;;
64297;SDS011;50639;53.270;7.956;2023-07-16T13:18:43;11.93;;;4.80;;
64297;SDS011;50639;53.270;7.956;2023-07-16T13:21:08;14.07;;;4.95;;
64297;SDS011;50639;53.270;7.956;2023-07-16T13:23:34;11.02;;;4.78;;
64297;SDS011;50639;53.270;7.956;2023-07-16T13:26:00;13.73;;;4.72;;
64297;SDS011;50639;53.270;7.956;2023-07-16T13:28:26;13.80;;;5.38;;
64297;SDS011;50639;53.270;7.956;2023-07-16T13:30:53;10.20;;;4.90;;
64297;SDS011;50639;53.270;7.956;2023-07-16T13:33:19;12.63;;;4.43;;
64297;SDS011;50639;53.270;7.956;2023-07-16T13:35:44;11.07;;;4.72;;
64297;SDS011;50639;53.270;7.956;2023-07-16T13:38:10;8.88;;;4.15;;
64297;SDS011;50639;53.270;7.956;2023-07-16T13:40:35;10.60;;;4.85;;
64297;SDS011;50639;53.270;7.956;2023-07-16T13:43:01;11.25;;;4.57;;
64297;SDS011;50639;53.270;7.956;2023-07-16T13:45:26;12.07;;;4.97;;
64297;SDS011;50639;53.270;7.956;2023-07-16T13:47:52;9.90;;;4.57;;
64297;SDS011;50639;53.270;7.956;2023-07-16T13:50:20;10.50;;;4.53;;
64297;SDS011;50639;53.270;7.956;2023-07-16T13:52:45;9.55;;;4.75;;
64297;SDS011;50639;53.270;7.956;2023-07-16T13:55:11;9.70;;;4.25;;
64297;SDS011;50639;53.270;7.956;2023-07-16T13:57:37;9.27;;;4.57;;
64297;SDS011;50639;53.270;7.956;2023-07-16T14:00:03;11.00;;;4.57;;
64297;SDS011;50639;53.270;7.956;2023-07-16T14:04:55;10.30;;;4.33;;
64297;SDS011;50639;53.270;7.956;2023-07-16T14:07:21;7.68;;;4.35;;
64297;SDS011;50639;53.270;7.956;2023-07-16T14:09:48;9.68;;;4.28;;
64297;SDS011;50639;53.270;7.956;2023-07-16T14:12:13;9.63;;;4.77;;
64297;SDS011;50639;53.270;7.956;2023-07-16T14:14:39;8.15;;;4.30;;
64297;SDS011;50639;53.270;7.956;2023-07-16T14:17:04;7.95;;;4.00;;
64297;SDS011;50639;53.270;7.956;2023-07-16T14:19:30;9.57;;;4.20;;
64297;SDS011;50639;53.270;7.956;2023-07-16T14:21:56;8.27;;;4.07;;
64297;SDS011;50639;53.270;7.956;2023-07-16T14:24:21;11.20;;;4.70;;
64297;SDS011;50639;53.270;7.956;2023-07-16T14:26:47;11.70;;;4.75;;
64297;SDS011;50639;53.270;7.956;2023-07-16T14:29:14;8.20;;;4.15;;
64297;SDS011;50639;53.270;7.956;2023-07-16T14:31:40;10.50;;;4.40;;
64297;SDS011;50639;53.270;7.956;2023-07-16T14:34:06;9.93;;;4.30;;
64297;SDS011;50639;53.270;7.956;2023-07-16T14:36:32;11.07;;;4.65;;
64297;SDS011;50639;53.270;7.956;2023-07-16T14:38:57;10.50;;;3.85;;
64297;SDS011;50639;53.270;7.956;2023-07-16T14:41:23;9.40;;;4.20;;
64297;SDS011;50639;53.270;7.956;2023-07-16T14:43:48;10.68;;;4.18;;
64297;SDS011;50639;53.270;7.956;2023-07-16T14:46:17;10.40;;;4.25;;
64297;SDS011;50639;53.270;7.956;2023-07-16T14:48:43;9.95;;;3.97;;